Time;durP1;ratioP1;P1;durP2;ratioP2;P2;SDS_P1;SDS_P2;PMS_P1;PMS_P2;Temp;Humidity;BMP_temperature;BMP_pressure;BME280_temperature;BME280_humidity;BME280_pressure;Samples;Min_cycle;Max_cycle;Signal;HPM_P1;HPM_P2
2023/08/01 00:00:38;;;;;;;4.63;2.70;;;;;;;16.12;100.00;99916.56;5015862;28;20034;-74
2023/08/01 00:03:04;;;;;;;5.25;2.35;;;;;;;16.12;100.00;99912.13;5015819;28;20340;-74
2023/08/01 00:05:29;;;;;;;6.00;2.72;;;;;;;16.11;100.00;99913.06;5015294;28;20161;-74
2023/08/01 00:07:54;;;;;;;3.72;2.17;;;;;;;16.10;100.00;99908.78;5015762;28;20033;-74
2023/08/01 00:10:20;;;;;;;6.75;2.67;;;;;;;16.10;100.00;99907.94;5014958;28;20092;-74
2023/08/01 00:12:46;;;;;;;3.00;2.10;;;;;;;16.09;100.00;99908.88;5015870;28;20050;-75
2023/08/01 00:15:12;;;;;;;5.85;2.50;;;;;;;16.07;100.00;99898.44;5015824;28;20325;-74
2023/08/01 00:17:37;;;;;;;5.40;2.70;;;;;;;16.06;100.00;99898.56;5015007;28;20406;-74
2023/08/01 00:20:04;;;;;;;5.85;2.90;;;;;;;16.06;100.00;99895.91;5015813;28;20416;-74
2023/08/01 00:22:29;;;;;;;10.55;2.92;;;;;;;16.05;100.00;99889.81;5015400;28;20044;-74
2023/08/01 00:24:55;;;;;;;6.03;2.47;;;;;;;16.04;100.00;99877.53;5015649;28;20033;-74
2023/08/01 00:27:20;;;;;;;5.95;3.10;;;;;;;16.04;100.00;99876.72;5015167;28;20036;-74
2023/08/01 00:29:46;;;;;;;6.10;2.47;;;;;;;16.03;100.00;99867.13;5015643;28;20042;-74
2023/08/01 00:32:11;;;;;;;5.50;3.00;;;;;;;16.02;100.00;99868.91;5015458;28;20034;-74
2023/08/01 00:34:37;;;;;;;9.13;3.50;;;;;;;16.02;100.00;99863.63;5015031;28;20041;-74
2023/08/01 00:37:02;;;;;;;5.10;2.30;;;;;;;16.01;100.00;99858.47;5015439;28;20034;-74
2023/08/01 00:39:27;;;;;;;4.40;2.42;;;;;;;15.99;100.00;99857.75;5014767;28;20033;-74
2023/08/01 00:41:53;;;;;;;5.13;2.83;;;;;;;16.00;100.00;99856.78;5015655;28;20088;-74
2023/08/01 00:44:18;;;;;;;6.13;2.80;;;;;;;15.98;100.00;99856.91;5014647;28;20269;-74
2023/08/01 00:46:44;;;;;;;10.43;2.83;;;;;;;15.99;100.00;99863.03;5015407;28;20367;-74
2023/08/01 00:49:10;;;;;;;6.03;2.80;;;;;;;15.98;100.00;99861.38;5015153;28;20073;-74
2023/08/01 00:51:35;;;;;;;5.00;2.70;;;;;;;15.98;100.00;99858.72;5014891;28;20049;-74
2023/08/01 00:54:01;;;;;;;4.85;2.45;;;;;;;15.97;100.00;99854.38;5015380;28;20033;-74
2023/08/01 00:56:27;;;;;;;5.95;2.70;;;;;;;15.96;100.00;99861.47;5014449;28;20097;-74
2023/08/01 00:58:52;;;;;;;7.65;3.20;;;;;;;15.95;100.00;99856.31;5015351;28;20079;-74
2023/08/01 01:06:53;;;;;;;4.70;2.95;;;;;;;15.93;100.00;99848.50;5038601;28;20235;-75
2023/08/01 01:09:19;;;;;;;6.10;2.90;;;;;;;15.92;100.00;99845.03;5038731;28;20040;-75
2023/08/01 01:11:46;;;;;;;8.40;2.58;;;;;;;15.92;100.00;99850.31;5038767;28;20041;-76
2023/08/01 01:14:12;;;;;;;4.45;2.80;;;;;;;15.92;100.00;99845.03;5038921;28;20083;-76
2023/08/01 01:16:37;;;;;;;4.30;2.55;;;;;;;15.92;100.00;99850.31;5020006;28;20041;-76
2023/08/01 01:19:06;;;;;;;4.97;2.50;;;;;;;15.92;100.00;99854.78;5038522;28;20045;-76
2023/08/01 01:21:35;;;;;;;5.03;2.60;;;;;;;15.92;100.00;99846.84;5037965;28;20064;-76
2023/08/01 01:24:02;;;;;;;7.72;2.58;;;;;;;15.91;100.00;99840.69;5038697;28;20136;-76
2023/08/01 01:26:28;;;;;;;4.43;2.45;;;;;;;15.92;100.00;99845.03;5020003;28;20060;-76
2023/08/01 01:28:54;;;;;;;8.20;2.80;;;;;;;15.91;100.00;99845.16;5038475;28;20454;-76
2023/08/01 01:31:20;;;;;;;5.90;2.63;;;;;;;15.91;100.00;99845.16;5038139;28;20100;-76
2023/08/01 01:33:46;;;;;;;5.00;2.40;;;;;;;15.90;100.00;99844.31;5038027;28;20037;-76
2023/08/01 01:36:11;;;;;;;6.32;2.35;;;;;;;15.90;100.00;99846.97;5038633;28;20201;-76
2023/08/01 01:38:37;;;;;;;5.68;2.25;;;;;;;15.90;100.00;99840.84;5037526;28;20029;-76
2023/08/01 01:41:02;;;;;;;5.70;2.75;;;;;;;15.89;100.00;99842.63;5038450;28;20049;-76
2023/08/01 01:43:27;;;;;;;7.70;3.13;;;;;;;15.89;100.00;99844.44;5037863;28;20075;-76
2023/08/01 01:45:53;;;;;;;8.02;2.92;;;;;;;15.88;100.00;99840.09;5038096;28;20033;-76
2023/08/01 01:48:18;;;;;;;5.22;2.35;;;;;;;15.88;100.00;99838.31;5037832;28;20064;-76
2023/08/01 01:50:43;;;;;;;3.33;2.53;;;;;;;15.87;100.00;99841.91;5038222;28;20198;-76
2023/08/01 01:53:09;;;;;;;6.47;2.40;;;;;;;15.88;100.00;99835.69;5037714;28;20036;-76
2023/08/01 01:55:34;;;;;;;3.92;2.30;;;;;;;15.89;100.00;99836.53;5037335;28;20033;-76
2023/08/01 01:58:00;;;;;;;5.07;2.85;;;;;;;15.89;100.00;99836.53;5037907;28;20285;-76
2023/08/01 02:00:25;;;;;;;3.22;2.42;;;;;;;15.89;100.00;99840.00;5037631;28;20033;-76
2023/08/01 02:02:51;;;;;;;6.32;2.33;;;;;;;15.88;100.00;99838.31;5037582;28;20056;-76
2023/08/01 02:05:16;;;;;;;3.22;2.47;;;;;;;15.89;100.00;99836.53;5037348;28;20045;-76
2023/08/01 02:07:41;;;;;;;3.45;2.60;;;;;;;15.89;100.00;99833.88;5037662;28;20374;-76
2023/08/01 02:10:07;;;;;;;3.05;2.08;;;;;;;15.88;100.00;99830.41;5037831;28;20037;-76
2023/08/01 02:12:34;;;;;;;4.45;2.47;;;;;;;15.88;100.00;99830.41;5037142;28;20041;-76
2023/08/01 02:15:00;;;;;;;4.70;2.20;;;;;;;15.89;100.00;99829.44;5037143;28;20029;-76
2023/08/01 02:17:25;;;;;;;7.00;3.33;;;;;;;15.90;100.00;99825.84;5037117;28;20362;-76
2023/08/01 02:19:51;;;;;;;7.50;3.13;;;;;;;15.89;100.00;99821.50;5037439;28;20043;-75
2023/08/01 02:22:16;;;;;;;3.20;2.50;;;;;;;15.90;100.00;99825.00;5037314;28;20347;-75
2023/08/01 02:24:42;;;;;;;3.78;2.20;;;;;;;15.90;100.00;99823.19;5037229;28;20033;-76
2023/08/01 02:27:07;;;;;;;4.22;2.88;;;;;;;15.90;100.00;99823.19;5037346;28;20053;-76
2023/08/01 02:29:33;;;;;;;6.65;3.33;;;;;;;15.90;100.00;99820.56;5036459;28;20037;-76
2023/08/01 02:31:59;;;;;;;4.65;3.05;;;;;;;15.90;100.00;99820.56;5033058;28;20224;-76
2023/08/01 02:34:24;;;;;;;6.75;3.45;;;;;;;15.91;100.00;99818.75;5031530;28;20065;-76
2023/08/01 02:36:50;;;;;;;5.30;2.83;;;;;;;15.90;100.00;99825.84;5016847;28;20045;-76
2023/08/01 02:39:15;;;;;;;5.10;2.83;;;;;;;15.91;100.00;99826.66;5018127;28;20026;-76
2023/08/01 02:41:40;;;;;;;4.97;3.15;;;;;;;15.91;100.00;99824.03;5036011;28;20049;-76
2023/08/01 02:44:06;;;;;;;5.38;3.20;;;;;;;15.91;100.00;99826.66;5037418;28;20276;-76
2023/08/01 02:46:31;;;;;;;6.22;3.60;;;;;;;15.90;100.00;99817.91;5036644;28;20120;-74
2023/08/01 02:48:57;;;;;;;5.57;3.63;;;;;;;15.90;100.00;99831.13;5037251;28;20055;-74
2023/08/01 02:51:22;;;;;;;6.78;2.95;;;;;;;15.90;100.00;99823.19;5018883;28;20033;-75
2023/08/01 02:53:48;;;;;;;7.05;3.60;;;;;;;15.91;100.00;99831.94;5036726;28;20048;-75
2023/08/01 02:56:13;;;;;;;6.78;3.47;;;;;;;15.91;100.00;99831.94;5036499;28;20109;-74
2023/08/01 02:58:38;;;;;;;10.55;3.80;;;;;;;15.91;100.00;99829.31;5036748;28;20034;-74
2023/08/01 03:01:09;;;;;;;8.93;3.40;;;;;;;15.91;100.00;99829.31;5036817;28;20048;-74
2023/08/01 03:03:35;;;;;;;5.30;2.78;;;;;;;15.90;100.00;99836.41;5036094;28;20357;-74
2023/08/01 03:06:01;;;;;;;12.00;4.25;;;;;;;15.91;100.00;99818.75;5036521;28;20041;-74
2023/08/01 03:08:27;;;;;;;12.45;3.63;;;;;;;15.90;100.00;99825.00;5036242;28;20029;-74
2023/08/01 03:10:54;;;;;;;6.38;2.95;;;;;;;15.90;100.00;99832.94;5036195;28;20025;-74
2023/08/01 03:13:19;;;;;;;11.48;3.42;;;;;;;15.90;100.00;99833.75;5036427;28;20072;-74
2023/08/01 03:15:44;;;;;;;7.18;3.25;;;;;;;15.90;100.00;99830.28;5036114;28;20048;-74
2023/08/01 03:18:10;;;;;;;9.45;4.20;;;;;;;15.89;100.00;99834.72;5036338;28;20044;-74
2023/08/01 03:20:35;;;;;;;7.57;3.30;;;;;;;15.88;100.00;99833.03;5034472;28;20267;-74
2023/08/01 03:23:01;;;;;;;9.93;4.07;;;;;;;15.89;100.00;99836.53;5034107;28;20096;-74
2023/08/01 03:25:27;;;;;;;12.30;3.63;;;;;;;15.88;100.00;99830.41;5029198;28;20324;-73
2023/08/01 03:27:54;;;;;;;6.03;3.13;;;;;;;15.88;100.00;99840.97;5032461;28;20449;-74
2023/08/01 03:30:20;;;;;;;12.38;4.03;;;;;;;15.88;100.00;99848.03;5034313;28;20250;-74
2023/08/01 03:32:46;;;;;;;11.73;4.35;;;;;;;15.87;100.00;99847.19;5032369;28;20033;-74
2023/08/01 03:35:13;;;;;;;7.30;3.35;;;;;;;15.87;100.00;99843.72;5029230;28;20084;-74
2023/08/01 03:37:39;;;;;;;12.45;3.78;;;;;;;15.87;100.00;99849.84;5029682;28;20116;-74
2023/08/01 03:40:08;;;;;;;12.60;3.75;;;;;;;15.86;100.00;99845.53;5031174;28;20060;-74
2023/08/01 03:42:34;;;;;;;7.15;3.70;;;;;;;15.88;100.00;99850.66;5032480;28;20045;-74
2023/08/01 03:44:59;;;;;;;8.80;3.40;;;;;;;15.88;100.00;99850.66;5034560;28;20279;-74
2023/08/01 03:47:24;;;;;;;5.35;3.33;;;;;;;15.85;100.00;99849.13;5032475;28;20037;-74
2023/08/01 03:49:50;;;;;;;11.25;3.85;;;;;;;15.87;100.00;99859.56;5032316;28;20416;-74
2023/08/01 03:52:15;;;;;;;8.25;2.83;;;;;;;15.87;100.00;99862.19;5032554;28;20048;-74
2023/08/01 03:54:40;;;;;;;7.28;3.28;;;;;;;15.87;100.00;99854.28;5031900;28;20345;-74
2023/08/01 03:57:06;;;;;;;6.03;2.65;;;;;;;15.86;100.00;99845.53;5032277;28;20041;-74
2023/08/01 03:59:31;;;;;;;8.60;3.30;;;;;;;15.86;100.00;99853.44;5031418;28;20029;-74
2023/08/01 04:01:57;;;;;;;7.93;4.03;;;;;;;15.86;100.00;99853.44;5032012;28;20267;-74
2023/08/01 04:04:23;;;;;;;5.55;2.88;;;;;;;15.86;100.00;99852.59;5032850;28;20311;-74
2023/08/01 04:06:48;;;;;;;9.90;3.35;;;;;;;15.85;100.00;99849.13;5033390;28;20045;-74
2023/08/01 04:09:13;;;;;;;8.40;3.25;;;;;;;15.85;100.00;99849.13;5034037;28;20116;-74
2023/08/01 04:11:39;;;;;;;7.35;3.10;;;;;;;15.85;100.00;99849.13;5015867;28;20037;-74
2023/08/01 04:14:04;;;;;;;3.50;2.50;;;;;;;15.84;100.00;99851.88;5017483;28;20029;-74
2023/08/01 04:16:30;;;;;;;5.18;2.45;;;;;;;15.84;100.00;99847.44;5034654;28;20067;-74
2023/08/01 04:18:55;;;;;;;6.40;2.90;;;;;;;15.84;100.00;99850.06;5035757;28;20040;-74
2023/08/01 04:21:20;;;;;;;9.65;2.92;;;;;;;15.84;100.00;99847.44;5035057;28;20344;-74
2023/08/01 04:23:46;;;;;;;5.00;2.70;;;;;;;15.84;100.00;99847.44;5035266;28;20328;-74
2023/08/01 04:26:11;;;;;;;4.82;3.17;;;;;;;15.84;100.00;99852.72;5035317;28;20041;-74
2023/08/01 04:28:37;;;;;;;7.40;2.65;;;;;;;15.84;100.00;99844.78;5016936;28;20029;-74
2023/08/01 04:31:02;;;;;;;7.95;2.85;;;;;;;15.83;100.00;99844.94;5035498;28;20113;-74
2023/08/01 04:33:28;;;;;;;4.60;2.50;;;;;;;15.82;100.00;99838.78;5016816;28;20044;-74
2023/08/01 04:35:53;;;;;;;4.47;2.45;;;;;;;15.82;100.00;99844.06;5034831;28;20343;-74
2023/08/01 04:38:19;;;;;;;7.45;2.60;;;;;;;15.82;100.00;99848.53;5036575;28;20041;-74
2023/08/01 04:40:44;;;;;;;8.25;2.67;;;;;;;15.81;100.00;99842.41;5020977;28;20024;-74
2023/08/01 04:43:11;;;;;;;4.60;2.10;;;;;;;15.80;100.00;99848.63;5039150;28;20045;-74
2023/08/01 04:45:36;;;;;;;6.05;2.80;;;;;;;15.81;100.00;99852.97;5038467;28;20033;-74
2023/08/01 04:48:02;;;;;;;4.70;2.90;;;;;;;15.80;100.00;99850.44;5039031;28;20069;-74
2023/08/01 04:50:27;;;;;;;6.38;2.70;;;;;;;15.80;100.00;99850.44;5038693;28;20061;-74
2023/08/01 04:52:53;;;;;;;3.42;2.22;;;;;;;15.79;100.00;99854.88;5038919;28;20325;-74
2023/08/01 04:55:18;;;;;;;4.38;2.42;;;;;;;15.79;100.00;99857.53;5038755;28;20271;-74
2023/08/01 04:57:44;;;;;;;8.02;2.60;;;;;;;15.79;100.00;99854.88;5038847;28;20034;-74
2023/08/01 05:00:10;;;;;;;6.63;2.58;;;;;;;15.78;100.00;99858.47;5038973;28;20021;-74
2023/08/01 05:02:36;;;;;;;6.05;2.58;;;;;;;15.78;100.00;99852.38;5038671;28;20604;-74
2023/08/01 05:05:01;;;;;;;3.58;2.15;;;;;;;15.78;100.00;99858.47;5038542;28;20307;-74
2023/08/01 05:07:27;;;;;;;4.25;2.00;;;;;;;15.78;100.00;99855.00;5038611;28;20033;-74
2023/08/01 05:09:52;;;;;;;6.93;2.45;;;;;;;15.78;100.00;99858.47;5038609;28;20104;-74
2023/08/01 05:12:18;;;;;;;4.32;2.45;;;;;;;15.77;100.00;99855.94;5038465;28;20327;-74
2023/08/01 05:14:43;;;;;;;9.38;2.58;;;;;;;15.77;100.00;99856.81;5038364;28;20227;-74
2023/08/01 05:17:08;;;;;;;6.38;2.47;;;;;;;15.75;100.00;99850.78;5038578;28;20064;-74
2023/08/01 05:19:34;;;;;;;4.72;2.35;;;;;;;15.76;100.00;99851.66;5038005;28;20040;-74
2023/08/01 05:21:59;;;;;;;4.70;2.45;;;;;;;15.75;100.00;99853.44;5038596;28;20251;-74
2023/08/01 05:24:24;;;;;;;7.40;2.65;;;;;;;15.75;100.00;99850.78;5037972;28;20033;-74
2023/08/01 05:26:50;;;;;;;6.47;2.63;;;;;;;15.74;100.00;99854.41;5038470;28;20355;-74
2023/08/01 05:29:15;;;;;;;5.25;2.60;;;;;;;15.73;100.00;99848.25;5038459;28;20048;-74
2023/08/01 05:31:40;;;;;;;5.22;2.70;;;;;;;15.73;100.00;99852.69;5037768;28;20032;-74
2023/08/01 05:34:06;;;;;;;7.72;2.25;;;;;;;15.73;100.00;99860.59;5038472;28;20077;-74
2023/08/01 05:36:31;;;;;;;4.55;2.38;;;;;;;15.72;100.00;99857.13;5037824;28;20056;-74
2023/08/01 05:38:57;;;;;;;4.47;2.33;;;;;;;15.72;100.00;99861.56;5038436;28;20339;-74
2023/08/01 05:41:22;;;;;;;5.18;2.10;;;;;;;15.72;100.00;99869.50;5037659;28;20263;-74
2023/08/01 05:43:49;;;;;;;2.83;1.88;;;;;;;15.71;100.00;99871.28;5037907;28;20083;-74
2023/08/01 05:46:14;;;;;;;6.38;2.58;;;;;;;15.71;100.00;99875.72;5038069;28;20037;-74
2023/08/01 05:48:40;;;;;;;5.00;2.53;;;;;;;15.71;100.00;99876.56;5037213;28;20354;-74
2023/08/01 05:51:05;;;;;;;4.82;2.00;;;;;;;15.71;100.00;99875.72;5036917;28;20033;-74
2023/08/01 05:53:31;;;;;;;3.85;1.98;;;;;;;15.71;100.00;99873.91;5037678;28;20267;-74
2023/08/01 05:55:56;;;;;;;5.88;2.55;;;;;;;15.72;100.00;99874.78;5037903;28;20243;-74
2023/08/01 05:58:22;;;;;;;4.15;2.30;;;;;;;15.71;100.00;99879.19;5037386;28;20061;-74
2023/08/01 06:00:47;;;;;;;2.95;2.25;;;;;;;15.72;100.00;99882.69;5037868;28;20033;-74
2023/08/01 06:03:12;;;;;;;4.97;2.10;;;;;;;15.72;100.00;99880.06;5037429;28;20205;-74
2023/08/01 06:05:38;;;;;;;3.00;1.98;;;;;;;15.72;100.00;99880.88;5037185;28;20110;-74
2023/08/01 06:08:06;;;;;;;5.72;2.33;;;;;;;15.72;100.00;99885.31;5038131;28;20029;-74
2023/08/01 06:10:32;;;;;;;2.42;1.77;;;;;;;15.73;100.00;99882.56;5036999;28;20069;-74
2023/08/01 06:12:57;;;;;;;5.53;2.97;;;;;;;15.73;100.00;99885.22;5037618;28;20041;-74
2023/08/01 06:15:23;;;;;;;5.50;2.47;;;;;;;15.73;100.00;99882.56;5037203;28;20040;-74
2023/08/01 06:17:48;;;;;;;4.88;2.58;;;;;;;15.74;100.00;99884.28;5037294;28;20033;-74
2023/08/01 06:20:13;;;;;;;8.52;2.38;;;;;;;15.74;100.00;99888.72;5037635;28;20028;-73
2023/08/01 06:22:40;;;;;;;5.57;2.45;;;;;;;15.74;100.00;99888.72;5037150;28;20198;-74
2023/08/01 06:25:05;;;;;;;4.43;2.45;;;;;;;15.75;100.00;99890.38;5037329;28;20031;-74
2023/08/01 06:27:31;;;;;;;4.00;2.67;;;;;;;15.76;100.00;99894.72;5036731;28;20065;-74
2023/08/01 06:29:56;;;;;;;5.90;2.88;;;;;;;15.77;100.00;99893.78;5037120;28;20040;-74
2023/08/01 06:32:22;;;;;;;4.78;2.15;;;;;;;15.77;100.00;99896.41;5019129;28;20029;-74
2023/08/01 06:34:47;;;;;;;7.28;2.85;;;;;;;15.78;100.00;99895.44;5037031;28;20267;-74
2023/08/01 06:37:13;;;;;;;5.22;2.47;;;;;;;15.79;100.00;99906.81;5037167;28;20039;-74
2023/08/01 06:39:38;;;;;;;4.57;2.40;;;;;;;15.79;100.00;99898.91;5036330;28;20393;-74
2023/08/01 06:42:04;;;;;;;5.40;2.00;;;;;;;15.78;100.00;99899.88;5037192;28;20262;-74
2023/08/01 06:44:29;;;;;;;3.75;1.88;;;;;;;15.78;100.00;99899.88;5036545;28;20029;-74
2023/08/01 06:46:54;;;;;;;8.57;3.17;;;;;;;15.78;100.00;99903.34;5036793;28;20033;-74
2023/08/01 06:49:20;;;;;;;7.50;2.70;;;;;;;15.79;100.00;99920.03;5036653;28;20080;-74
2023/08/01 06:51:45;;;;;;;6.40;3.03;;;;;;;15.79;100.00;99910.31;5036805;28;20053;-74
2023/08/01 06:54:11;;;;;;;6.28;2.60;;;;;;;15.79;100.00;99912.09;5036885;28;20227;-73
2023/08/01 06:56:36;;;;;;;4.00;2.00;;;;;;;15.78;100.00;99924.47;5036691;28;20257;-73
2023/08/01 06:59:01;;;;;;;6.40;2.05;;;;;;;15.79;100.00;99920.03;5036845;28;20041;-73
2023/08/01 07:01:27;;;;;;;5.97;2.80;;;;;;;15.79;100.00;99923.53;5036196;28;20096;-74
2023/08/01 07:03:52;;;;;;;6.10;2.30;;;;;;;15.80;100.00;99919.06;5036310;28;20034;-73
2023/08/01 07:06:18;;;;;;;4.45;2.00;;;;;;;15.80;100.00;99933.13;5036342;28;20079;-74
2023/08/01 07:08:43;;;;;;;3.17;1.77;;;;;;;15.82;100.00;99925.06;5036266;28;20328;-74
2023/08/01 07:11:09;;;;;;;7.65;2.70;;;;;;;15.82;100.00;99933.81;5036347;28;20037;-73
2023/08/01 07:13:34;;;;;;;4.25;2.30;;;;;;;15.84;100.00;99928.44;5035821;28;20071;-74
2023/08/01 07:16:00;;;;;;;6.65;2.90;;;;;;;15.84;100.00;99937.19;5036397;28;20356;-74
2023/08/01 07:18:25;;;;;;;5.93;2.35;;;;;;;15.86;100.00;99945.00;5035861;28;20025;-73
2023/08/01 07:21:04;;;;;;;7.60;2.67;;;;;;;15.86;100.00;99931.78;5036071;28;20454;-73
2023/08/01 07:23:30;;;;;;;5.18;2.20;;;;;;;15.86;100.00;99942.34;5035976;28;20350;-73
2023/08/01 07:25:55;;;;;;;3.28;2.00;;;;;;;15.86;100.00;99939.72;5036403;28;20345;-73
2023/08/01 07:28:21;;;;;;;4.90;1.88;;;;;;;15.85;100.00;99938.88;5035939;28;20105;-74
2023/08/01 07:30:47;;;;;;;4.70;2.28;;;;;;;15.88;100.00;99953.63;5035694;28;20042;-73
2023/08/01 07:33:12;;;;;;;3.80;1.83;;;;;;;15.88;100.00;99949.22;5035991;28;20118;-73
2023/08/01 07:35:37;;;;;;;5.65;2.25;;;;;;;15.88;100.00;99943.94;5035305;28;20423;-73
2023/08/01 07:38:03;;;;;;;6.15;2.25;;;;;;;15.89;100.00;99950.03;5036113;28;20033;-73
2023/08/01 07:40:28;;;;;;;3.15;1.95;;;;;;;15.89;100.00;99956.16;5035339;28;20033;-73
2023/08/01 07:42:54;;;;;;;4.35;2.35;;;;;;;15.89;100.00;99958.81;5035856;28;20036;-73
2023/08/01 07:45:19;;;;;;;3.33;1.98;;;;;;;15.90;100.00;99949.94;5035608;28;20040;-73
2023/08/01 07:47:45;;;;;;;3.60;1.77;;;;;;;15.92;100.00;99955.94;5035707;28;20051;-73
2023/08/01 07:50:10;;;;;;;3.42;1.88;;;;;;;15.93;100.00;99949.72;5036031;28;20040;-73
2023/08/01 07:52:36;;;;;;;7.60;2.03;;;;;;;15.95;100.00;99954.00;5034982;28;20283;-73
2023/08/01 07:55:01;;;;;;;4.47;1.98;;;;;;;15.95;100.00;99952.19;5036049;28;20037;-73
2023/08/01 07:57:27;;;;;;;5.53;2.05;;;;;;;15.96;100.00;99955.72;5035016;28;20271;-73
2023/08/01 07:59:52;;;;;;;3.53;1.77;;;;;;;15.96;100.00;99953.06;5036083;28;20029;-73
2023/08/01 08:02:18;;;;;;;4.05;2.30;;;;;;;15.97;100.00;99962.66;5036258;28;20056;-73
2023/08/01 08:04:43;;;;;;;6.93;2.65;;;;;;;15.97;100.00;99952.97;5018656;28;20037;-73
2023/08/01 08:07:09;;;;;;;3.55;2.00;;;;;;;15.98;100.00;99967.81;5036548;28;20041;-73
2023/08/01 08:09:34;;;;;;;7.05;2.40;;;;;;;16.00;100.00;99970.34;5035229;28;20099;-73
2023/08/01 08:11:59;;;;;;;8.85;2.50;;;;;;;16.02;100.00;99963.16;5037635;28;20037;-73
2023/08/01 08:14:26;;;;;;;8.32;2.60;;;;;;;16.03;100.00;99978.88;5036687;28;20040;-73
2023/08/01 08:16:51;;;;;;;7.95;2.65;;;;;;;16.05;100.00;99965.56;5036421;28;20105;-73
2023/08/01 08:19:17;;;;;;;5.75;2.55;;;;;;;16.06;100.00;99964.56;5036052;28;20266;-73
2023/08/01 08:21:42;;;;;;;5.97;2.25;;;;;;;16.07;100.00;99967.09;5036562;28;20033;-73
2023/08/01 08:24:08;;;;;;;7.03;2.60;;;;;;;16.07;100.00;99975.03;5036760;28;20057;-73
2023/08/01 08:26:37;;;;;;;3.42;1.80;;;;;;;16.08;100.00;99979.38;5035808;28;20040;-73
2023/08/01 08:29:04;;;;;;;6.13;1.75;;;;;;;16.09;100.00;99977.56;5036352;28;20044;-73
2023/08/01 08:31:30;;;;;;;4.13;2.78;;;;;;;16.09;100.00;99980.19;5034494;28;20033;-73
2023/08/01 08:33:55;;;;;;;7.03;2.25;;;;;;;16.07;100.00;99982.13;5017871;28;20079;-73
2023/08/01 08:36:21;;;;;;;4.88;1.85;;;;;;;16.05;100.00;99992.81;5034990;28;20072;-74
2023/08/01 08:38:46;;;;;;;4.85;2.22;;;;;;;16.04;100.00;99992.91;5035291;28;20033;-73
2023/08/01 08:41:22;;;;;;;3.17;1.70;;;;;;;16.03;100.00;99985.97;5034942;28;20244;-73
2023/08/01 08:43:48;;;;;;;4.30;1.95;;;;;;;16.03;100.00;99989.44;5035005;28;20190;-73
2023/08/01 08:46:16;;;;;;;6.40;2.38;;;;;;;16.03;100.00;99991.25;5035161;28;20056;-73
2023/08/01 08:48:42;;;;;;;6.72;2.15;;;;;;;16.03;100.00;99989.44;5035228;28;20532;-73
2023/08/01 08:51:07;;;;;;;7.22;2.10;;;;;;;16.06;100.00;99998.91;5035067;28;20040;-73
2023/08/01 08:53:34;;;;;;;7.75;2.40;;;;;;;16.07;100.00;99997.97;5034794;28;20056;-73
2023/08/01 08:56:01;;;;;;;4.93;2.40;;;;;;;16.09;100.00;99996.88;5035256;28;20033;-73
2023/08/01 08:58:30;;;;;;;8.45;2.08;;;;;;;16.12;100.00;99982.63;5034677;28;20037;-73
2023/08/01 09:00:56;;;;;;;;;;;;;;;16.13;100.00;99994.84;5035543;28;20037;-73
2023/08/01 09:03:21;;;;;;;5.82;2.25;;;;;;;16.12;100.00;99988.72;5034700;28;20103;-73
2023/08/01 09:05:53;;;;;;;3.67;1.88;;;;;;;16.10;100.00;99993.28;5034755;28;20500;-73
2023/08/01 09:08:21;;;;;;;5.82;2.42;;;;;;;16.11;100.00;99991.47;5034329;28;20033;-73
2023/08/01 09:10:47;;;;;;;6.10;2.08;;;;;;;16.10;100.00;99998.56;5034882;28;20045;-73
2023/08/01 09:13:13;;;;;;;6.90;2.38;;;;;;;16.10;100.00;100001.22;5035678;28;20025;-73
2023/08/01 09:15:42;;;;;;;3.92;2.15;;;;;;;16.12;100.00;99998.47;5035021;28;20032;-73
2023/08/01 09:18:07;;;;;;;;;;;;;;;16.12;100.00;100001.94;5035506;28;20105;-73
2023/08/01 09:20:46;;;;;;;7.35;2.30;;;;;;;16.15;100.00;100005.28;5034098;28;20293;-73
2023/08/01 09:23:11;;;;;;;2.25;1.50;;;;;;;16.17;100.00;100006.88;5034777;28;20092;-73
2023/08/01 09:25:37;;;;;;;6.50;2.58;;;;;;;16.19;100.00;100012.00;5037888;28;20048;-73
2023/08/01 09:28:03;;;;;;;5.28;2.40;;;;;;;16.22;100.00;100003.84;5038622;28;20068;-73
2023/08/01 09:30:29;;;;;;;6.32;2.65;;;;;;;16.23;100.00;100009.03;5038237;28;20037;-73
2023/08/01 09:32:56;;;;;;;4.85;2.78;;;;;;;16.24;100.00;100007.22;5038097;28;20123;-74
2023/08/01 09:35:21;;;;;;;6.95;2.53;;;;;;;16.25;100.00;100008.91;5038097;28;20044;-73
2023/08/01 09:37:47;;;;;;;5.20;2.17;;;;;;;16.25;100.00;100017.66;5037968;28;20033;-73
2023/08/01 09:40:14;;;;;;;5.72;2.05;;;;;;;16.27;100.00;100020.19;5038483;28;20044;-73
2023/08/01 09:42:41;;;;;;;4.82;2.35;;;;;;;16.28;100.00;100014.81;5037616;28;20040;-73
2023/08/01 09:45:16;;;;;;;5.30;2.33;;;;;;;16.31;100.00;100027.75;5038478;28;20013;-74
2023/08/01 09:47:43;;;;;;;5.40;2.05;;;;;;;16.34;100.00;100024.03;5037900;28;20051;-73
2023/08/01 09:50:10;;;;;;;7.72;2.13;;;;;;;16.38;100.00;100032.56;5038291;28;20109;-73
2023/08/01 09:52:36;;;;;;;5.78;2.22;;;;;;;16.39;100.00;100024.53;5037656;28;20520;-73
2023/08/01 09:55:02;;;;;;;5.07;2.08;;;;;;;16.40;100.00;100026.19;5038041;28;20101;-73
2023/08/01 09:57:30;;;;;;;6.20;2.33;;;;;;;16.45;100.00;100039.06;5037571;28;20037;-73
2023/08/01 09:59:56;;;;;;;4.70;1.83;;;;;;;16.47;100.00;100034.50;5037980;28;20029;-73
2023/08/01 10:02:24;;;;;;;7.60;2.03;;;;;;;16.50;99.95;100044.84;5037380;28;20029;-73
2023/08/01 10:04:52;;;;;;;5.87;2.27;;;;;;;16.49;99.59;100038.69;5037293;28;20045;-73
2023/08/01 10:07:23;;;;;;;4.25;2.15;;;;;;;16.49;99.39;100035.22;5037226;28;20053;-73
2023/08/01 10:09:49;;;;;;;4.35;1.88;;;;;;;16.51;99.22;100038.56;5037742;28;20327;-73
2023/08/01 10:12:18;;;;;;;2.33;1.35;;;;;;;16.53;99.05;100043.75;5038027;28;20061;-73
2023/08/01 10:14:43;;;;;;;;;;;;;;;16.53;99.13;100036.66;5038006;28;20033;-74
2023/08/01 10:17:11;;;;;;;13.35;2.65;;;;;;;16.55;98.63;100044.47;5037713;28;19905;-73
2023/08/01 10:19:37;;;;;;;3.50;1.52;;;;;;;16.56;98.80;100046.16;5037045;28;20364;-73
2023/08/01 10:22:05;;;;;;;3.60;1.48;;;;;;;16.55;98.54;100037.38;5037403;28;20079;-73
2023/08/01 10:24:33;;;;;;;5.90;1.98;;;;;;;16.57;98.62;100046.03;5036493;28;20328;-73
2023/08/01 10:27:11;;;;;;;4.28;1.77;;;;;;;16.57;98.57;100045.19;5037706;28;20119;-73
2023/08/01 10:29:36;;;;;;;4.95;1.40;;;;;;;16.57;98.66;100039.91;5037008;28;20060;-73
2023/08/01 10:32:02;;;;;;;6.65;2.05;;;;;;;16.57;98.96;100040.75;5037238;28;20040;-73
2023/08/01 10:34:27;;;;;;;2.95;1.70;;;;;;;16.60;98.94;100045.78;5036621;28;20037;-73
2023/08/01 10:36:57;;;;;;;6.95;2.30;;;;;;;16.62;98.70;100056.25;5036727;28;20164;-73
2023/08/01 10:39:25;;;;;;;4.10;1.67;;;;;;;16.63;98.55;100058.78;5036806;28;20254;-73
2023/08/01 10:42:05;;;;;;;3.03;1.38;;;;;;;16.65;98.08;100051.56;5039217;28;20045;-73
2023/08/01 10:44:33;;;;;;;6.35;1.83;;;;;;;16.64;97.46;100059.59;5038589;28;20220;-74
2023/08/01 10:47:03;;;;;;;5.15;1.85;;;;;;;16.63;97.43;100063.22;5038928;28;20239;-73
2023/08/01 10:49:40;;;;;;;6.47;2.28;;;;;;;16.62;97.34;100078.22;5038540;28;20204;-73
2023/08/01 10:52:28;;;;;;;5.22;2.10;;;;;;;16.62;97.51;100066.81;5037252;28;20130;-73
2023/08/01 10:55:05;;;;;;;5.97;2.47;;;;;;;16.60;97.88;100063.47;5020381;28;20029;-73
2023/08/01 10:57:32;;;;;;;4.60;2.00;;;;;;;16.60;98.30;100079.31;5037324;28;20045;-73
2023/08/01 10:59:58;;;;;;;3.95;1.73;;;;;;;16.60;98.59;100079.31;5037590;28;20026;-73
2023/08/01 11:02:26;;;;;;;7.22;1.90;;;;;;;16.59;98.64;100080.25;5037947;28;20033;-73
2023/08/01 11:05:03;;;;;;;8.02;2.58;;;;;;;16.59;98.68;100083.78;5038123;28;20271;-73
2023/08/01 11:07:28;;;;;;;5.03;2.10;;;;;;;16.58;98.83;100075.94;5037012;28;20398;-73
2023/08/01 11:10:10;;;;;;;3.97;1.92;;;;;;;16.58;98.72;100090.00;5037244;28;20346;-73
2023/08/01 11:12:38;;;;;;;3.72;1.92;;;;;;;16.56;98.62;100081.34;5037639;28;20083;-73
2023/08/01 11:15:09;;;;;;;7.95;2.13;;;;;;;16.55;98.50;100097.31;5037960;28;20386;-74
2023/08/01 11:17:39;;;;;;;5.57;2.10;;;;;;;16.55;98.20;100105.25;5037382;28;20033;-73
2023/08/01 11:20:07;;;;;;;5.93;1.58;;;;;;;16.53;97.93;100093.97;5039224;28;20087;-73
2023/08/01 11:22:33;;;;;;;5.00;1.73;;;;;;;16.52;97.73;100101.06;5037437;28;20368;-73
2023/08/01 11:24:58;;;;;;;4.63;1.77;;;;;;;16.53;97.90;100104.53;5038316;28;20029;-73